createdAt,value
2022-08-22T00:01:07.113Z,80.89
2022-08-22T00:02:44.478Z,81.81
2022-08-22T00:02:45.810Z,85.23
2022-08-22T00:02:56.792Z,81.40
2022-08-22T00:04:16.589Z,79.29
2022-08-22T00:06:49.882Z,79.80
2022-08-22T00:09:29.042Z,81.05
2022-08-22T00:12:29.348Z,82.09
2022-08-22T00:15:06.814Z,80.95
2022-08-22T00:17:36.004Z,79.62
2022-08-22T00:20:03.281Z,79.51
2022-08-22T00:22:36.789Z,79.87
2022-08-22T00:25:33.218Z,80.53
2022-08-22T00:28:11.457Z,80.79
2022-08-22T00:30:48.852Z,79.95
2022-08-22T00:33:42.392Z,79.82
2022-08-22T00:36:23.771Z,80.21
2022-08-22T00:39:37.469Z,81.46
2022-08-22T00:42:33.056Z,80.83
2022-08-22T00:45:54.869Z,79.85
2022-08-22T00:48:43.212Z,79.93
2022-08-22T00:51:33.598Z,80.65
2022-08-22T00:54:17.508Z,81.59
2022-08-22T00:57:04.359Z,80.78
2022-08-22T00:59:38.266Z,79.65
2022-08-22T01:02:44.669Z,79.60
2022-08-22T01:05:41.171Z,80.50
2022-08-22T01:08:17.746Z,82.37
2022-08-22T01:10:55.947Z,81.68
2022-08-22T01:13:29.291Z,80.40
2022-08-22T01:16:24.861Z,80.64
2022-08-22T01:19:30.514Z,82.51
2022-08-22T01:22:25.934Z,84.07
2022-08-22T01:25:22.607Z,83.36
2022-08-22T01:28:12.453Z,83.25
2022-08-22T01:31:23.017Z,85.16
2022-08-22T01:34:26.676Z,87.04
2022-08-22T01:37:22.775Z,86.04
2022-08-22T01:40:06.874Z,84.68
2022-08-22T01:42:58.935Z,85.16
2022-08-22T01:45:52.131Z,85.27
2022-08-22T01:48:39.728Z,85.19
2022-08-22T01:51:17.037Z,83.34
2022-08-22T01:53:58.741Z,81.53
2022-08-22T01:56:25.848Z,81.38
2022-08-22T01:59:10.905Z,82.11
2022-08-22T02:02:16.189Z,82.98
2022-08-22T02:05:12.297Z,84.14
2022-08-22T02:07:49.682Z,82.73
2022-08-22T02:10:54.108Z,81.15
2022-08-22T02:13:29.863Z,81.52
2022-08-22T02:16:37.392Z,82.84
2022-08-22T02:19:13.753Z,84.14
2022-08-22T02:21:44.149Z,83.02
2022-08-22T02:24:23.076Z,82.15
2022-08-22T02:27:31.307Z,81.30
2022-08-22T02:30:45.767Z,81.69
2022-08-22T02:33:21.290Z,82.62
2022-08-22T02:35:55.196Z,81.67
2022-08-22T02:38:43.830Z,80.00
2022-08-22T02:41:34.479Z,80.17
2022-08-22T02:44:13.102Z,80.97
2022-08-22T02:47:08.586Z,81.91
2022-08-22T02:50:01.668Z,81.48
2022-08-22T02:52:39.955Z,80.77
2022-08-22T02:55:19.526Z,80.98
2022-08-22T02:58:02.415Z,82.47
2022-08-22T03:00:41.101Z,84.87
2022-08-22T03:03:21.106Z,83.67
2022-08-22T03:06:02.776Z,82.05
2022-08-22T03:08:35.545Z,81.17
2022-08-22T03:11:11.311Z,81.67
2022-08-22T03:13:55.869Z,82.46
2022-08-22T03:16:29.261Z,81.87
2022-08-22T03:19:14.956Z,80.82
2022-08-22T03:22:08.930Z,80.92
2022-08-22T03:24:56.413Z,83.34
2022-08-22T03:27:32.119Z,85.04
2022-08-22T03:30:21.538Z,83.48
2022-08-22T03:32:59.095Z,82.46
2022-08-22T03:35:41.888Z,82.41
2022-08-22T03:38:32.997Z,83.29
2022-08-22T03:41:12.505Z,84.73
2022-08-22T03:44:01.189Z,84.54
2022-08-22T03:46:50.381Z,82.75
2022-08-22T03:49:32.869Z,82.90
2022-08-22T03:52:13.362Z,83.47
2022-08-22T03:54:55.056Z,83.55
2022-08-22T03:58:19.148Z,81.86
2022-08-22T04:01:14.089Z,79.38
2022-08-22T04:04:13.821Z,79.63
2022-08-22T04:06:49.175Z,79.85
2022-08-22T04:09:30.650Z,81.23
2022-08-22T04:12:10.086Z,79.77
2022-08-22T04:15:00.684Z,77.94
2022-08-22T04:17:36.640Z,77.95
2022-08-22T04:20:09.242Z,77.99
2022-08-22T04:22:46.404Z,78.09
2022-08-22T04:25:36.195Z,76.85
2022-08-22T04:28:14.975Z,75.86
2022-08-22T04:30:47.213Z,75.30
2022-08-22T04:33:38.083Z,74.28
2022-08-22T04:36:14.877Z,75.24
2022-08-22T04:38:56.140Z,76.35
2022-08-22T04:41:37.386Z,74.86
2022-08-22T04:44:07.060Z,73.32
2022-08-22T04:47:11.265Z,72.54
2022-08-22T04:49:45.465Z,73.77
2022-08-22T04:52:21.455Z,74.62
2022-08-22T04:55:17.788Z,75.27
2022-08-22T04:58:22.800Z,73.97
2022-08-22T05:01:18.224Z,71.25
2022-08-22T05:03:50.885Z,70.73
2022-08-22T05:06:19.320Z,71.84
2022-08-22T05:08:48.444Z,71.28
2022-08-22T05:11:22.225Z,72.61
2022-08-22T05:14:02.021Z,73.54
2022-08-22T05:16:32.817Z,71.67
2022-08-22T05:19:28.378Z,69.33
2022-08-22T05:21:58.777Z,68.82
2022-08-22T05:24:42.182Z,69.99
2022-08-22T05:27:10.905Z,70.26
2022-08-22T05:29:39.595Z,70.88
2022-08-22T05:32:09.509Z,71.46
2022-08-22T05:34:38.274Z,70.93
2022-08-22T05:37:33.630Z,69.75
2022-08-22T05:40:00.706Z,68.84
2022-08-22T05:42:31.227Z,68.42
2022-08-22T05:44:59.904Z,68.91
2022-08-22T05:47:38.007Z,69.98
2022-08-22T05:50:17.664Z,70.69
2022-08-22T05:52:55.829Z,70.46
2022-08-22T05:55:25.845Z,71.48
2022-08-22T05:58:00.784Z,69.49
2022-08-22T06:00:27.976Z,69.64
2022-08-22T06:03:01.531Z,70.77
2022-08-22T06:05:30.313Z,71.75
2022-08-22T06:08:36.191Z,71.26
2022-08-22T06:11:07.652Z,71.84
2022-08-22T06:13:41.278Z,70.06
2022-08-22T06:16:16.672Z,69.16
2022-08-22T06:18:44.278Z,69.61
2022-08-22T06:21:22.198Z,70.36
2022-08-22T06:23:56.173Z,71.55
2022-08-22T06:26:24.731Z,71.20
2022-08-22T06:28:55.308Z,71.15
2022-08-22T06:31:31.864Z,71.42
2022-08-22T06:34:22.535Z,70.74
2022-08-22T06:36:50.500Z,69.68
2022-08-22T06:39:24.833Z,70.58
2022-08-22T06:41:53.404Z,71.61
2022-08-22T06:44:23.218Z,71.18
2022-08-22T06:46:52.043Z,71.07
2022-08-22T06:49:18.972Z,70.90
2022-08-22T06:51:46.224Z,69.47
2022-08-22T06:54:23.949Z,70.27
2022-08-22T06:56:51.352Z,69.21
2022-08-22T06:59:23.253Z,70.57
2022-08-22T07:01:54.819Z,69.35
2022-08-22T07:04:26.228Z,67.53
2022-08-22T07:06:54.664Z,67.57
2022-08-22T07:09:23.591Z,67.12
2022-08-22T07:11:50.844Z,67.03
2022-08-22T07:14:39.011Z,67.50
2022-08-22T07:17:08.510Z,68.48
2022-08-22T07:19:44.855Z,69.00
2022-08-22T07:22:20.595Z,67.36
2022-08-22T07:24:50.565Z,66.75
2022-08-22T07:27:48.805Z,66.25
2022-08-22T07:30:17.711Z,65.09
2022-08-22T07:33:23.634Z,65.23
2022-08-22T07:35:53.519Z,65.22
2022-08-22T07:38:43.272Z,66.01
2022-08-22T07:41:19.718Z,66.72
2022-08-22T07:44:11.439Z,64.84
2022-08-22T07:47:16.860Z,65.87
2022-08-22T07:49:58.375Z,65.39
2022-08-22T07:52:25.446Z,64.58
2022-08-22T07:54:55.707Z,65.07
2022-08-22T07:57:22.696Z,64.49
2022-08-22T07:59:55.072Z,63.96
2022-08-22T08:02:22.239Z,63.41
2022-08-22T08:04:50.496Z,62.67
2022-08-22T08:07:21.498Z,61.93
2022-08-22T08:09:54.545Z,61.92
2022-08-22T08:12:29.870Z,61.14
2022-08-22T08:14:56.776Z,61.86
2022-08-22T08:17:32.034Z,61.00
2022-08-22T08:20:03.638Z,61.04
2022-08-22T08:22:30.748Z,61.85
2022-08-22T08:24:58.217Z,59.71
2022-08-22T08:27:50.517Z,59.06
2022-08-22T08:30:33.902Z,60.08
2022-08-22T08:33:24.941Z,58.58
2022-08-22T08:36:17.764Z,57.79
2022-08-22T08:38:49.088Z,56.65
2022-08-22T08:41:45.935Z,56.25
2022-08-22T08:44:35.512Z,55.84
2022-08-22T08:47:24.881Z,54.54
2022-08-22T08:50:01.249Z,54.28
2022-08-22T08:53:00.864Z,55.02
2022-08-22T08:55:37.536Z,54.61
2022-08-22T08:58:17.700Z,53.22
2022-08-22T09:00:59.480Z,51.88
2022-08-22T09:03:51.305Z,51.86
2022-08-22T09:06:54.795Z,52.00
2022-08-22T09:09:41.627Z,52.19
2022-08-22T09:12:28.439Z,52.28
2022-08-22T09:15:14.592Z,50.97
2022-08-22T09:18:14.139Z,51.13
2022-08-22T09:21:03.741Z,51.14
2022-08-22T09:23:55.441Z,50.85
2022-08-22T09:26:27.959Z,50.18
2022-08-22T09:28:58.974Z,51.33
2022-08-22T09:34:29.314Z,49.77
2022-08-22T09:37:16.016Z,50.69
2022-08-22T09:40:05.833Z,50.34
2022-08-22T09:43:02.485Z,50.23
2022-08-22T09:45:52.205Z,50.49
2022-08-22T09:48:29.193Z,49.74
2022-08-22T09:51:33.359Z,50.41
2022-08-22T09:54:19.098Z,49.02
2022-08-22T09:57:05.297Z,48.76
2022-08-22T10:00:10.230Z,48.73
2022-08-22T10:03:02.649Z,46.12
2022-08-22T10:05:43.892Z,45.81
2022-08-22T10:08:30.508Z,45.33
2022-08-22T10:11:21.471Z,43.55
2022-08-22T10:14:02.506Z,43.54
2022-08-22T10:16:45.057Z,41.93
2022-08-22T10:19:31.443Z,43.30
2022-08-22T10:22:31.031Z,42.22
2022-08-22T10:25:49.517Z,45.34
2022-08-22T10:28:19.543Z,45.80
2022-08-22T10:31:17.408Z,47.01
2022-08-22T10:33:49.063Z,48.05
2022-08-22T10:36:22.955Z,46.68
2022-08-22T10:38:55.341Z,47.18
2022-08-22T10:41:32.323Z,47.19
2022-08-22T10:44:05.035Z,46.06
2022-08-22T10:46:42.217Z,45.43
2022-08-22T10:49:22.493Z,44.66
2022-08-22T10:52:15.852Z,43.80
2022-08-22T10:54:48.184Z,43.81
2022-08-22T10:57:20.760Z,44.03
2022-08-22T11:00:04.910Z,43.62
2022-08-22T11:02:36.360Z,43.64
2022-08-22T11:05:22.659Z,43.99
2022-08-22T11:08:15.922Z,43.43
2022-08-22T11:11:02.219Z,40.36
2022-08-22T11:13:59.577Z,40.27
2022-08-22T11:16:42.801Z,40.53
2022-08-22T11:19:15.519Z,40.60
2022-08-22T11:21:56.360Z,39.27
2022-08-22T11:24:34.800Z,39.24
2022-08-22T11:27:07.398Z,39.24
2022-08-22T11:29:48.130Z,38.14
2022-08-22T11:32:19.977Z,40.25
2022-08-22T11:35:23.712Z,42.40
2022-08-22T11:37:56.800Z,41.38
2022-08-22T11:40:43.614Z,41.94
2022-08-22T11:43:37.823Z,41.53
2022-08-22T11:46:23.872Z,40.29
2022-08-22T11:49:08.759Z,40.68
2022-08-22T11:52:10.517Z,41.51
2022-08-22T11:54:57.936Z,41.56
2022-08-22T11:57:33.180Z,44.17
2022-08-22T12:00:20.693Z,42.08
2022-08-22T12:03:16.229Z,42.23
2022-08-22T12:06:10.917Z,39.86
2022-08-22T12:09:02.117Z,40.39
2022-08-22T12:11:59.083Z,41.55
2022-08-22T12:14:36.139Z,41.07
2022-08-22T12:17:55.973Z,42.59
2022-08-22T12:20:35.163Z,43.12
2022-08-22T12:23:48.547Z,42.72
2022-08-22T12:26:51.033Z,42.88
2022-08-22T12:29:18.555Z,42.32
2022-08-22T12:31:56.004Z,43.49
2022-08-22T12:35:00.461Z,42.92
2022-08-22T12:37:52.664Z,42.67
2022-08-22T12:40:43.608Z,43.29
2022-08-22T12:43:42.529Z,42.76
2022-08-22T12:46:48.877Z,43.26
2022-08-22T12:49:52.343Z,41.95
2022-08-22T12:52:37.433Z,42.95
2022-08-22T12:55:11.031Z,42.32
2022-08-22T12:57:44.218Z,42.43
2022-08-22T13:00:22.861Z,42.48
2022-08-22T13:02:53.906Z,42.77
2022-08-22T13:05:24.720Z,42.94
2022-08-22T13:07:55.523Z,43.36
2022-08-22T13:10:41.036Z,42.76
2022-08-22T13:13:12.367Z,41.82
2022-08-22T13:15:53.526Z,42.74
2022-08-22T13:18:29.686Z,42.68
2022-08-22T13:20:59.986Z,43.25
2022-08-22T13:23:46.686Z,44.33
2022-08-22T13:26:32.821Z,42.82
2022-08-22T13:29:27.559Z,43.02
2022-08-22T13:31:59.818Z,42.60
2022-08-22T13:34:39.595Z,43.55
2022-08-22T13:37:10.930Z,43.39
2022-08-22T13:39:41.181Z,43.87
2022-08-22T13:42:14.616Z,42.61
2022-08-22T13:44:55.530Z,41.78
2022-08-22T13:47:25.261Z,42.86
2022-08-22T13:50:12.740Z,42.50
2022-08-22T13:53:02.735Z,41.94
2022-08-22T13:55:42.962Z,42.48
2022-08-22T13:58:25.222Z,42.42
2022-08-22T14:01:25.490Z,41.99
2022-08-22T14:04:19.993Z,42.40
2022-08-22T14:07:04.635Z,42.16
2022-08-22T14:09:54.256Z,42.13
2022-08-22T14:12:25.935Z,42.30
2022-08-22T14:14:56.963Z,41.50
2022-08-22T14:17:32.271Z,41.63
2022-08-22T14:20:07.950Z,41.84
2022-08-22T14:22:39.789Z,42.17
2022-08-22T14:25:15.957Z,42.37
2022-08-22T14:27:55.742Z,42.52
2022-08-22T14:30:27.394Z,42.85
2022-08-22T14:33:59.529Z,42.39
2022-08-22T14:36:34.671Z,42.71
2022-08-22T14:39:16.765Z,43.19
2022-08-22T14:41:52.373Z,42.59
2022-08-22T14:44:32.978Z,43.15
2022-08-22T14:47:03.847Z,42.20
2022-08-22T14:50:02.098Z,42.83
2022-08-22T14:52:42.867Z,42.83
2022-08-22T14:55:09.815Z,42.62
2022-08-22T14:57:41.595Z,42.52
2022-08-22T15:00:12.714Z,42.52
2022-08-22T15:02:40.374Z,42.85
2022-08-22T15:05:21.181Z,42.85
2022-08-22T15:07:55.843Z,42.71
2022-08-22T15:10:26.631Z,43.36
2022-08-22T15:13:00.233Z,43.74
2022-08-22T15:15:29.118Z,43.46
2022-08-22T15:17:56.580Z,43.68
2022-08-22T15:20:28.075Z,43.91
2022-08-22T15:23:00.696Z,44.51
2022-08-22T15:25:31.327Z,44.05
2022-08-22T15:28:05.556Z,44.43
2022-08-22T15:30:37.494Z,44.57
2022-08-22T15:33:12.294Z,45.09
2022-08-22T15:35:39.372Z,44.93
2022-08-22T15:38:36.383Z,44.81
2022-08-22T15:41:22.194Z,45.60
2022-08-22T15:43:50.729Z,46.06
2022-08-22T15:46:20.806Z,46.13
2022-08-22T15:48:56.927Z,45.93
2022-08-22T15:51:45.959Z,46.38
2022-08-22T15:54:24.747Z,46.81
2022-08-22T15:56:53.547Z,47.43
2022-08-22T15:59:54.138Z,47.59
2022-08-22T16:02:29.523Z,47.63
2022-08-22T16:05:10.015Z,48.09
2022-08-22T16:07:59.066Z,47.66
2022-08-22T16:10:26.216Z,47.86
2022-08-22T16:13:15.268Z,48.21
2022-08-22T16:15:52.691Z,48.93
2022-08-22T16:18:42.947Z,48.99
2022-08-22T16:21:22.537Z,49.26
2022-08-22T16:23:50.047Z,49.73
2022-08-22T16:26:36.054Z,50.44
2022-08-22T16:29:02.986Z,50.59
2022-08-22T16:31:33.668Z,50.71
2022-08-22T16:34:19.913Z,51.07
2022-08-22T16:37:08.481Z,51.31
2022-08-22T16:40:03.021Z,51.90
2022-08-22T16:42:39.060Z,51.84
2022-08-22T16:45:15.106Z,52.18
2022-08-22T16:47:54.523Z,52.71
2022-08-22T16:50:36.937Z,53.11
2022-08-22T16:53:03.970Z,54.02
2022-08-22T16:55:35.648Z,54.61
2022-08-22T16:58:18.542Z,54.96
2022-08-22T17:01:05.697Z,55.31
2022-08-22T17:03:36.035Z,56.11
2022-08-22T17:06:20.142Z,56.58
2022-08-22T17:09:16.063Z,57.33
2022-08-22T17:12:11.986Z,57.91
2022-08-22T17:14:57.872Z,58.53
2022-08-22T17:17:41.207Z,58.73
2022-08-22T17:20:28.039Z,58.98
2022-08-22T17:23:28.653Z,59.66
2022-08-22T17:26:12.915Z,60.01
2022-08-22T17:29:01.574Z,60.08
2022-08-22T17:31:58.935Z,60.13
2022-08-22T17:35:55.573Z,60.91
2022-08-22T17:38:27.420Z,61.54
2022-08-22T17:41:32.179Z,61.25
2022-08-22T17:44:20.905Z,62.13
2022-08-22T17:46:57.485Z,62.41
2022-08-22T17:49:29.758Z,62.58
2022-08-22T17:52:30.296Z,61.83
2022-08-22T17:55:13.221Z,59.82
2022-08-22T17:57:49.241Z,59.63
2022-08-22T18:00:26.347Z,59.92
2022-08-22T18:03:02.102Z,60.32
2022-08-22T18:05:35.656Z,60.71
2022-08-22T18:08:08.291Z,61.34
2022-08-22T18:10:47.874Z,61.69
2022-08-22T18:13:29.095Z,62.20
2022-08-22T18:16:11.345Z,62.93
2022-08-22T18:18:41.229Z,63.27
2022-08-22T18:21:28.262Z,63.82
2022-08-22T18:24:01.018Z,64.88
2022-08-22T18:26:38.401Z,65.82
2022-08-22T18:29:17.902Z,64.97
2022-08-22T18:31:49.700Z,63.05
2022-08-22T18:34:32.328Z,62.66
2022-08-22T18:37:12.576Z,62.25
2022-08-22T18:39:48.669Z,62.56
2022-08-22T18:42:48.245Z,63.01
2022-08-22T18:45:20.451Z,63.32
2022-08-22T18:47:54.535Z,64.02
2022-08-22T18:50:36.156Z,64.90
2022-08-22T18:53:04.251Z,65.98
2022-08-22T18:55:58.669Z,65.75
2022-08-22T18:58:58.899Z,65.35
2022-08-22T19:02:00.330Z,63.93
2022-08-22T19:05:02.012Z,64.28
2022-08-22T19:07:51.392Z,64.66
2022-08-22T19:10:28.670Z,64.70
2022-08-22T19:13:24.184Z,64.91
2022-08-22T19:15:57.711Z,65.68
2022-08-22T19:18:40.304Z,65.80
2022-08-22T19:21:55.472Z,66.37
2022-08-22T19:24:25.486Z,65.05
2022-08-22T19:27:18.702Z,64.25
2022-08-22T19:29:46.209Z,64.39
2022-08-22T19:32:59.464Z,64.70
2022-08-22T19:35:36.525Z,65.41
2022-08-22T19:38:06.329Z,66.64
2022-08-22T19:40:46.180Z,66.33
2022-08-22T19:43:36.939Z,67.33
2022-08-22T19:46:09.301Z,65.80
2022-08-22T19:48:50.484Z,64.20
2022-08-22T19:51:20.760Z,63.21
2022-08-22T19:54:16.221Z,63.95
2022-08-22T19:56:57.164Z,65.79
2022-08-22T19:59:39.553Z,66.14
2022-08-22T20:02:35.509Z,66.61
2022-08-22T20:05:12.824Z,66.96
2022-08-22T20:07:58.780Z,67.47
2022-08-22T20:10:31.982Z,67.06
2022-08-22T20:13:18.758Z,65.88
2022-08-22T20:16:01.296Z,63.81
2022-08-22T20:19:05.938Z,63.34
2022-08-22T20:21:40.322Z,63.44
2022-08-22T20:24:09.444Z,63.63
2022-08-22T20:26:51.953Z,63.69
2022-08-22T20:29:35.322Z,63.77
2022-08-22T20:32:03.352Z,64.30
2022-08-22T20:34:32.519Z,64.43
2022-08-22T20:37:25.347Z,64.59
2022-08-22T20:39:58.568Z,65.24
2022-08-22T20:42:26.547Z,65.64
2022-08-22T20:44:54.123Z,64.69
2022-08-22T20:47:24.146Z,63.06
2022-08-22T20:49:54.043Z,62.45
2022-08-22T20:52:28.482Z,62.69
2022-08-22T20:55:19.776Z,63.08
2022-08-22T20:57:55.824Z,63.75
2022-08-22T21:00:25.233Z,64.13
2022-08-22T21:03:09.453Z,65.13
2022-08-22T21:05:41.466Z,65.80
2022-08-22T21:08:09.840Z,65.94
2022-08-22T21:10:56.463Z,66.41
2022-08-22T21:13:34.486Z,65.44
2022-08-22T21:16:22.980Z,64.07
2022-08-22T21:18:51.886Z,63.72
2022-08-22T21:21:20.046Z,64.51
2022-08-22T21:23:49.249Z,65.65
2022-08-22T21:26:20.709Z,66.41
2022-08-22T21:28:57.064Z,66.41
2022-08-22T21:31:26.112Z,66.73
2022-08-22T21:33:54.157Z,66.83
2022-08-22T21:36:23.001Z,67.16
2022-08-22T21:39:04.079Z,66.48
2022-08-22T21:41:39.529Z,64.63
2022-08-22T21:44:33.203Z,64.49
2022-08-22T21:47:30.729Z,65.15
2022-08-22T21:50:06.928Z,65.47
2022-08-22T21:52:39.095Z,66.09
2022-08-22T21:55:22.015Z,66.69
2022-08-22T21:58:05.662Z,66.77
2022-08-22T22:01:03.355Z,67.62
2022-08-22T22:03:36.301Z,66.17
2022-08-22T22:06:05.510Z,64.96
2022-08-22T22:08:33.183Z,64.25
2022-08-22T22:11:02.978Z,64.90
2022-08-22T22:13:33.327Z,65.42
2022-08-22T22:16:00.451Z,65.94
2022-08-22T22:18:31.681Z,66.74
2022-08-22T22:20:59.201Z,68.26
2022-08-22T22:23:26.709Z,69.85
2022-08-22T22:25:55.094Z,69.84
2022-08-22T22:28:23.265Z,68.59
2022-08-22T22:30:51.580Z,68.78
2022-08-22T22:33:24.762Z,68.74
2022-08-22T22:35:52.827Z,69.38
2022-08-22T22:38:23.892Z,69.95
2022-08-22T22:40:52.305Z,70.46
2022-08-22T22:43:19.303Z,71.26
2022-08-22T22:45:46.419Z,71.19
2022-08-22T22:48:18.220Z,69.96
2022-08-22T22:50:52.674Z,70.03
2022-08-22T22:53:21.388Z,70.34
2022-08-22T22:56:01.027Z,71.00
2022-08-22T22:58:29.101Z,72.17
2022-08-22T23:00:57.665Z,73.18
2022-08-22T23:03:26.890Z,74.08
2022-08-22T23:05:53.929Z,73.66
2022-08-22T23:08:20.876Z,71.68
2022-08-22T23:10:48.131Z,71.32
2022-08-22T23:13:15.130Z,71.80
2022-08-22T23:15:42.222Z,72.33
2022-08-22T23:18:09.510Z,73.54
2022-08-22T23:20:36.628Z,73.71
2022-08-22T23:23:03.977Z,74.93
2022-08-22T23:25:31.138Z,73.86
2022-08-22T23:27:58.286Z,71.22
2022-08-22T23:30:25.427Z,70.27
2022-08-22T23:32:52.814Z,70.40
2022-08-22T23:35:20.348Z,71.08
2022-08-22T23:37:47.363Z,72.01
2022-08-22T23:40:14.472Z,73.41
2022-08-22T23:42:42.432Z,75.05
2022-08-22T23:45:09.964Z,74.43
2022-08-22T23:47:37.010Z,73.42
2022-08-22T23:50:06.287Z,74.52
2022-08-22T23:52:33.974Z,75.60
2022-08-22T23:55:01.132Z,76.30
2022-08-22T23:57:29.441Z,76.86
2022-08-22T23:59:57.851Z,76.68
